createdAt,value
2023-11-24T00:01:38.703Z,2.30
2023-11-24T00:04:08.071Z,2.93
2023-11-24T00:06:37.478Z,4.37
2023-11-24T00:09:07.344Z,3.17
2023-11-24T00:11:37.782Z,4.77
2023-11-24T00:14:07.366Z,5.37
2023-11-24T00:16:40.170Z,3.77
2023-11-24T00:19:11.831Z,4.77
2023-11-24T00:21:40.835Z,3.87
2023-11-24T00:24:10.316Z,3.50
2023-11-24T00:26:41.130Z,3.83
2023-11-24T00:29:10.179Z,3.63
2023-11-24T00:31:39.385Z,3.00
2023-11-24T00:34:09.418Z,3.70
2023-11-24T00:36:38.612Z,4.67
2023-11-24T00:39:07.930Z,4.33
2023-11-24T00:41:36.895Z,4.07
2023-11-24T00:44:07.762Z,4.50
2023-11-24T00:46:37.694Z,6.87
2023-11-24T00:49:06.816Z,8.07
2023-11-24T00:51:36.334Z,3.53
2023-11-24T00:54:05.649Z,6.57
2023-11-24T00:56:34.764Z,5.77
2023-11-24T00:59:03.804Z,3.40
2023-11-24T01:01:35.131Z,6.60
2023-11-24T01:04:04.557Z,5.90
2023-11-24T01:06:34.878Z,3.07
2023-11-24T01:09:06.117Z,7.57
2023-11-24T01:11:36.434Z,3.80
2023-11-24T01:14:06.071Z,5.73
2023-11-24T01:16:36.584Z,5.53
2023-11-24T01:19:08.225Z,3.73
2023-11-24T01:21:38.318Z,4.40
2023-11-24T01:24:08.225Z,5.50
2023-11-24T01:26:38.926Z,5.17
2023-11-24T01:29:09.134Z,5.23
2023-11-24T01:31:39.549Z,5.87
2023-11-24T01:34:08.665Z,5.73
2023-11-24T01:36:37.763Z,4.47
2023-11-24T01:39:09.334Z,8.07
2023-11-24T01:41:39.039Z,6.83
2023-11-24T01:44:08.789Z,7.57
2023-11-24T01:46:41.527Z,4.27
2023-11-24T01:49:12.535Z,4.43
2023-11-24T01:51:42.116Z,3.90
2023-11-24T01:54:13.439Z,1.70
2023-11-24T01:56:43.513Z,1.10
2023-11-24T01:59:12.883Z,2.47
2023-11-24T02:01:43.901Z,1.20
2023-11-24T02:04:13.285Z,1.57
2023-11-24T02:06:42.420Z,2.70
2023-11-24T02:09:12.517Z,1.40
2023-11-24T02:11:41.541Z,2.13
2023-11-24T02:14:10.663Z,3.73
2023-11-24T02:16:40.135Z,3.27
2023-11-24T02:19:10.668Z,2.60
2023-11-24T02:21:39.784Z,2.90
2023-11-24T02:24:10.580Z,3.47
2023-11-24T02:26:40.267Z,4.47
2023-11-24T02:29:11.098Z,2.63
2023-11-24T02:31:40.219Z,5.53
2023-11-24T02:34:11.318Z,3.53
2023-11-24T02:36:43.958Z,1.67
2023-11-24T02:39:15.772Z,3.00
2023-11-24T02:41:45.914Z,3.27
2023-11-24T02:44:15.049Z,3.23
2023-11-24T02:46:44.382Z,3.00
2023-11-24T02:49:14.617Z,3.30
2023-11-24T02:51:43.694Z,3.80
2023-11-24T02:54:14.135Z,4.87
2023-11-24T02:56:43.244Z,3.20
2023-11-24T02:59:11.184Z,3.80
2023-11-24T03:01:40.366Z,3.73
2023-11-24T03:04:09.604Z,3.40
2023-11-24T03:06:43.903Z,6.80
2023-11-24T03:09:15.452Z,6.53
2023-11-24T03:11:45.381Z,3.83
2023-11-24T03:14:14.516Z,5.93
2023-11-24T03:16:44.063Z,7.20
2023-11-24T03:19:13.532Z,4.53
2023-11-24T03:21:43.151Z,6.30
2023-11-24T03:24:13.636Z,6.00
2023-11-24T03:26:43.327Z,5.67
2023-11-24T03:29:12.815Z,4.60
2023-11-24T03:31:42.679Z,5.40
2023-11-24T03:34:12.299Z,4.23
2023-11-24T03:36:41.541Z,5.80
2023-11-24T03:39:15.439Z,8.20
2023-11-24T03:41:46.047Z,8.73
2023-11-24T03:44:15.229Z,7.17
2023-11-24T03:46:44.551Z,5.70
2023-11-24T03:49:13.588Z,7.53
2023-11-24T03:51:42.640Z,4.30
2023-11-24T03:54:11.657Z,9.93
2023-11-24T03:56:40.789Z,5.67
2023-11-24T03:59:11.402Z,6.90
2023-11-24T04:01:40.628Z,5.90
2023-11-24T04:04:09.950Z,7.13
2023-11-24T04:06:39.067Z,6.50
2023-11-24T04:09:08.138Z,6.63
2023-11-24T04:11:37.118Z,8.30
2023-11-24T04:14:06.602Z,7.20
2023-11-24T04:16:38.798Z,8.10
2023-11-24T04:19:08.962Z,10.53
2023-11-24T04:21:40.722Z,6.63
2023-11-24T04:24:10.418Z,8.67
2023-11-24T04:26:39.442Z,7.80
2023-11-24T04:29:08.446Z,6.50
2023-11-24T04:31:38.956Z,4.47
2023-11-24T04:34:08.011Z,4.70
2023-11-24T04:36:37.763Z,6.80
2023-11-24T04:39:07.065Z,8.07
2023-11-24T04:41:36.118Z,5.33
2023-11-24T04:44:05.211Z,9.50
2023-11-24T04:46:34.476Z,6.07
2023-11-24T04:49:05.230Z,5.73
2023-11-24T04:51:34.297Z,5.83
2023-11-24T04:54:03.972Z,6.13
2023-11-24T04:56:33.318Z,8.03
2023-11-24T04:59:02.341Z,4.63
2023-11-24T05:01:31.335Z,6.13
2023-11-24T05:04:01.076Z,5.57
2023-11-24T05:06:31.644Z,7.13
2023-11-24T05:09:02.964Z,3.73
2023-11-24T05:11:31.958Z,7.80
2023-11-24T05:14:00.867Z,5.40
2023-11-24T05:16:29.876Z,5.07
2023-11-24T05:18:58.847Z,3.83
2023-11-24T05:21:27.914Z,9.37
2023-11-24T05:23:58.391Z,4.37
2023-11-24T05:26:27.449Z,3.70
2023-11-24T05:28:56.410Z,8.60
2023-11-24T05:31:26.483Z,6.60
2023-11-24T05:33:57.161Z,4.20
2023-11-24T05:36:28.314Z,6.60
2023-11-24T05:38:59.254Z,6.17
2023-11-24T05:41:29.797Z,7.40
2023-11-24T05:43:59.020Z,5.70
2023-11-24T05:46:29.764Z,5.33
2023-11-24T05:48:58.923Z,6.40
2023-11-24T05:51:28.100Z,5.13
2023-11-24T05:53:58.467Z,8.10
2023-11-24T05:56:27.514Z,4.50
2023-11-24T05:58:57.585Z,5.60
2023-11-24T06:01:26.565Z,5.63
2023-11-24T06:03:55.688Z,6.97
2023-11-24T06:06:24.775Z,5.60
2023-11-24T06:08:53.736Z,7.27
2023-11-24T06:11:24.217Z,12.83
2023-11-24T06:13:54.439Z,11.60
2023-11-24T06:16:23.489Z,5.63
2023-11-24T06:18:52.634Z,4.33
2023-11-24T06:21:21.983Z,6.87
2023-11-24T06:23:52.489Z,8.47
2023-11-24T06:26:21.503Z,7.23
2023-11-24T06:28:51.943Z,7.70
2023-11-24T06:31:20.988Z,7.53
2023-11-24T06:33:50.794Z,5.33
2023-11-24T06:36:19.844Z,9.60
2023-11-24T06:38:48.912Z,9.33
2023-11-24T06:41:18.037Z,5.77
2023-11-24T06:43:47.117Z,5.27
2023-11-24T06:46:17.962Z,7.93
2023-11-24T06:48:47.125Z,5.90
2023-11-24T06:51:16.368Z,13.03
2023-11-24T06:53:45.410Z,16.33
2023-11-24T06:56:14.513Z,6.30
2023-11-24T06:58:44.286Z,7.93
2023-11-24T07:01:13.376Z,8.23
2023-11-24T07:03:44.049Z,7.63
2023-11-24T07:06:13.317Z,9.90
2023-11-24T07:08:42.634Z,8.60
2023-11-24T07:11:13.656Z,9.80
2023-11-24T07:13:42.825Z,11.93
2023-11-24T07:16:12.108Z,8.77
2023-11-24T07:18:41.512Z,8.63
2023-11-24T07:21:12.532Z,8.73
2023-11-24T07:23:42.386Z,8.70
2023-11-24T07:26:11.545Z,6.20
2023-11-24T07:28:44.324Z,9.67
2023-11-24T07:31:15.658Z,10.37
2023-11-24T07:33:45.192Z,7.87
2023-11-24T07:40:34.746Z,13.70
2023-11-24T07:43:04.648Z,11.13
2023-11-24T07:45:33.982Z,9.30
2023-11-24T07:51:50.950Z,8.67
2023-11-24T07:54:20.373Z,11.03
2023-11-24T07:56:51.234Z,8.93
2023-11-24T07:59:20.372Z,8.20
2023-11-24T08:01:49.648Z,8.27
2023-11-24T08:04:19.198Z,7.93
2023-11-24T08:06:49.808Z,9.93
2023-11-24T08:09:19.137Z,22.93
2023-11-24T08:11:48.246Z,13.50
2023-11-24T08:14:25.152Z,6.13
2023-11-24T08:16:54.536Z,9.60
2023-11-24T08:19:27.265Z,7.67
2023-11-24T08:21:57.389Z,10.57
2023-11-24T08:24:27.600Z,10.70
2023-11-24T08:26:57.363Z,6.57
2023-11-24T08:29:29.531Z,12.30
2023-11-24T08:31:59.759Z,16.27
2023-11-24T08:34:30.496Z,9.10
2023-11-24T08:37:03.688Z,10.83
2023-11-24T08:39:32.903Z,8.50
2023-11-24T08:42:02.669Z,7.00
2023-11-24T08:44:33.253Z,13.23
2023-11-24T08:47:02.551Z,11.67
2023-11-24T08:49:33.946Z,11.03
2023-11-24T08:52:04.673Z,11.73
2023-11-24T08:54:34.079Z,10.80
2023-11-24T08:57:06.212Z,10.50
2023-11-24T08:59:37.580Z,6.93
2023-11-24T09:02:07.065Z,10.47
2023-11-24T09:04:36.644Z,11.33
2023-11-24T09:07:06.472Z,12.23
2023-11-24T09:09:35.703Z,10.70
2023-11-24T09:12:07.163Z,8.13
2023-11-24T09:14:40.133Z,7.43
2023-11-24T09:17:09.749Z,5.87
2023-11-24T09:19:39.301Z,7.10
2023-11-24T09:22:08.960Z,8.80
2023-11-24T09:24:38.463Z,13.53
2023-11-24T09:27:07.911Z,11.07
2023-11-24T09:29:38.468Z,11.00
2023-11-24T09:32:08.414Z,8.60
2023-11-24T09:34:38.747Z,6.63
2023-11-24T09:37:08.210Z,8.40
2023-11-24T09:39:37.426Z,8.77
2023-11-24T09:42:07.935Z,8.60
2023-11-24T09:44:40.975Z,5.90
2023-11-24T09:47:12.292Z,6.97
2023-11-24T09:49:42.749Z,5.63
2023-11-24T09:52:13.093Z,9.47
2023-11-24T09:54:42.839Z,10.17
2023-11-24T09:57:12.370Z,11.27
2023-11-24T09:59:43.055Z,8.57
2023-11-24T10:02:19.119Z,4.40
2023-11-24T10:04:48.582Z,7.57
2023-11-24T10:07:23.547Z,8.57
2023-11-24T10:09:53.121Z,8.50
2023-11-24T10:12:22.898Z,6.23
2023-11-24T10:14:55.783Z,3.77
2023-11-24T10:17:25.871Z,6.03
2023-11-24T10:19:55.858Z,5.60
2023-11-24T10:22:26.357Z,8.70
2023-11-24T10:24:58.479Z,5.77
2023-11-24T10:27:28.452Z,6.63
2023-11-24T10:29:59.069Z,5.90
2023-11-24T10:32:28.895Z,9.97
2023-11-24T10:34:59.477Z,7.97
2023-11-24T10:37:29.938Z,5.20
2023-11-24T10:40:02.077Z,5.47
2023-11-24T10:42:35.204Z,6.57
2023-11-24T10:45:08.998Z,5.57
2023-11-24T10:47:45.137Z,5.20
2023-11-24T10:50:16.344Z,5.80
2023-11-24T10:52:51.416Z,4.43
2023-11-24T10:55:20.785Z,5.97
2023-11-24T10:57:51.709Z,5.60
2023-11-24T11:00:23.162Z,5.13
2023-11-24T11:02:54.462Z,4.13
2023-11-24T11:05:34.812Z,4.17
2023-11-24T11:08:15.238Z,5.47
2023-11-24T11:10:47.842Z,4.97
2023-11-24T11:13:19.340Z,3.40
2023-11-24T11:15:52.439Z,4.10
2023-11-24T11:18:27.712Z,6.17
2023-11-24T11:20:56.989Z,6.00
2023-11-24T11:23:28.525Z,5.33
2023-11-24T11:25:59.719Z,3.10
2023-11-24T11:28:48.059Z,4.87
2023-11-24T11:31:35.062Z,4.73
2023-11-24T11:34:16.522Z,4.20
2023-11-24T11:37:13.931Z,2.80
2023-11-24T11:39:55.361Z,5.47
2023-11-24T11:42:33.760Z,7.10
2023-11-24T11:45:11.591Z,4.63
2023-11-24T11:47:58.955Z,5.27
2023-11-24T11:50:28.251Z,5.70
2023-11-24T11:53:02.122Z,4.60
2023-11-24T11:55:31.614Z,7.10
2023-11-24T11:58:02.001Z,4.03
2023-11-24T12:00:32.448Z,6.87
2023-11-24T12:03:06.403Z,5.07
2023-11-24T12:05:36.252Z,4.47
2023-11-24T12:08:05.853Z,3.60
2023-11-24T12:10:36.247Z,8.43
2023-11-24T12:13:07.256Z,5.73
2023-11-24T12:15:36.893Z,5.73
2023-11-24T12:18:08.389Z,5.43
2023-11-24T12:20:38.924Z,6.07
2023-11-24T12:23:09.525Z,6.80
2023-11-24T12:25:40.956Z,5.63
2023-11-24T12:28:11.903Z,6.03
2023-11-24T12:30:43.746Z,4.17
2023-11-24T12:33:20.773Z,5.47
2023-11-24T12:35:50.926Z,4.60
2023-11-24T12:38:21.717Z,7.67
2023-11-24T12:40:53.960Z,3.57
2023-11-24T12:43:24.667Z,3.57
2023-11-24T12:45:54.229Z,4.93
2023-11-24T12:48:26.265Z,6.37
2023-11-24T12:50:58.317Z,6.80
2023-11-24T12:53:27.845Z,4.20
2023-11-24T12:55:57.464Z,5.13
2023-11-24T12:58:26.848Z,6.33
2023-11-24T13:00:58.415Z,7.87
2023-11-24T13:03:29.156Z,4.80
2023-11-24T13:05:58.666Z,7.37
2023-11-24T13:08:28.403Z,6.23
2023-11-24T13:10:58.899Z,5.37
2023-11-24T13:13:28.320Z,4.43
2023-11-24T13:15:58.571Z,6.83
2023-11-24T13:18:29.320Z,5.33
2023-11-24T13:20:58.548Z,7.30
2023-11-24T13:23:28.421Z,6.00
2023-11-24T13:25:57.864Z,5.03
2023-11-24T13:28:28.075Z,7.90
2023-11-24T13:30:57.499Z,6.73
2023-11-24T13:33:31.704Z,7.57
2023-11-24T13:36:02.481Z,6.17
2023-11-24T13:38:31.781Z,5.07
2023-11-24T13:41:01.051Z,6.60
2023-11-24T13:43:30.475Z,4.93
2023-11-24T13:46:00.993Z,7.37
2023-11-24T13:48:33.338Z,6.67
2023-11-24T13:51:04.837Z,8.13
2023-11-24T13:53:34.018Z,8.33
2023-11-24T13:56:03.368Z,6.27
2023-11-24T13:58:32.638Z,9.20
2023-11-24T14:01:01.916Z,5.97
2023-11-24T14:03:33.406Z,9.17
2023-11-24T14:06:02.793Z,10.43
2023-11-24T14:08:31.938Z,9.77
2023-11-24T14:11:01.955Z,7.40
2023-11-24T14:13:31.292Z,5.43
2023-11-24T14:16:00.768Z,9.73
2023-11-24T14:18:32.899Z,7.57
2023-11-24T14:21:02.405Z,7.23
2023-11-24T14:23:33.140Z,8.50
2023-11-24T14:26:02.502Z,7.20
2023-11-24T14:28:31.795Z,5.47
2023-11-24T14:31:02.224Z,5.73
2023-11-24T14:33:32.818Z,5.60
2023-11-24T14:36:02.109Z,5.87
2023-11-24T14:38:32.760Z,3.80
2023-11-24T14:41:08.599Z,4.97
2023-11-24T14:43:39.245Z,3.23
2023-11-24T14:46:10.492Z,4.83
2023-11-24T14:48:41.945Z,5.37
2023-11-24T14:51:14.393Z,5.00
2023-11-24T14:53:43.820Z,6.57
2023-11-24T14:56:17.043Z,7.20
2023-11-24T14:58:46.506Z,5.20
2023-11-24T15:01:20.746Z,10.77
2023-11-24T15:03:53.817Z,23.13
2023-11-24T15:06:27.145Z,8.07
2023-11-24T15:09:01.502Z,5.23
2023-11-24T15:11:39.037Z,8.57
2023-11-24T15:14:15.224Z,8.90
2023-11-24T15:16:52.648Z,8.70
2023-11-24T15:19:27.502Z,7.80
2023-11-24T15:21:57.684Z,6.70
2023-11-24T15:24:31.221Z,6.90
2023-11-24T15:27:01.267Z,9.07
2023-11-24T15:29:31.069Z,8.10
2023-11-24T15:32:00.543Z,6.90
2023-11-24T15:34:31.535Z,10.27
2023-11-24T15:37:00.856Z,6.17
2023-11-24T15:39:40.084Z,6.83
2023-11-24T15:42:09.696Z,6.33
2023-11-24T15:44:39.649Z,8.37
2023-11-24T15:47:12.145Z,7.77
2023-11-24T15:49:43.695Z,7.23
2023-11-24T15:52:15.625Z,7.97
2023-11-24T15:54:46.305Z,8.47
2023-11-24T15:57:15.710Z,6.77
2023-11-24T15:59:47.225Z,6.27
2023-11-24T16:02:25.193Z,5.83
2023-11-24T16:04:58.256Z,6.13
2023-11-24T16:07:33.928Z,4.70
2023-11-24T16:10:15.532Z,6.23
2023-11-24T16:12:46.151Z,5.23
2023-11-24T16:15:18.504Z,3.60
2023-11-24T16:18:46.158Z,4.40
2023-11-24T16:21:18.036Z,4.50
2023-11-24T16:23:48.302Z,2.50
2023-11-24T16:26:17.772Z,3.90
2023-11-24T16:28:47.067Z,3.27
2023-11-24T16:31:16.814Z,4.07
2023-11-24T16:33:46.596Z,2.70
2023-11-24T16:36:21.318Z,4.57
2023-11-24T16:38:50.538Z,5.90
2023-11-24T16:41:19.964Z,3.23
2023-11-24T16:43:49.306Z,3.13
2023-11-24T16:46:19.418Z,6.47
2023-11-24T16:48:48.752Z,3.70
2023-11-24T16:51:18.045Z,5.47
2023-11-24T16:53:48.800Z,5.20
2023-11-24T16:56:18.567Z,6.90
2023-11-24T16:58:48.020Z,5.53
2023-11-24T17:01:17.186Z,6.53
2023-11-24T17:03:46.472Z,4.93
2023-11-24T17:06:16.344Z,8.10
2023-11-24T17:08:45.563Z,3.47
2023-11-24T17:11:16.265Z,5.47
2023-11-24T17:13:45.447Z,18.90
2023-11-24T17:16:16.350Z,8.47
2023-11-24T17:18:45.640Z,8.30
2023-11-24T17:21:14.757Z,9.00
2023-11-24T17:23:44.205Z,8.17
2023-11-24T17:26:14.071Z,4.50
2023-11-24T17:28:46.958Z,4.70
2023-11-24T17:31:16.285Z,6.70
2023-11-24T17:33:45.774Z,5.10
2023-11-24T17:36:15.484Z,8.37
2023-11-24T17:38:45.758Z,6.90
2023-11-24T17:41:15.805Z,7.80
2023-11-24T17:43:46.608Z,10.60
2023-11-24T17:46:16.166Z,7.07
2023-11-24T17:48:46.905Z,8.10
2023-11-24T17:51:18.221Z,6.93
2023-11-24T17:53:49.268Z,8.83
2023-11-24T17:56:19.584Z,7.20
2023-11-24T17:58:50.401Z,9.27
2023-11-24T18:01:20.785Z,11.70
2023-11-24T18:03:51.114Z,10.60
2023-11-24T18:06:20.652Z,25.43
2023-11-24T18:08:49.863Z,22.53
2023-11-24T18:11:19.381Z,18.50
2023-11-24T18:13:52.005Z,14.63
2023-11-24T18:16:23.321Z,12.73
2023-11-24T18:18:55.024Z,12.73
2023-11-24T18:21:28.346Z,15.53
2023-11-24T18:23:59.820Z,10.80
2023-11-24T18:26:31.822Z,11.57
2023-11-24T18:29:04.934Z,11.67
2023-11-24T18:31:37.860Z,12.63
2023-11-24T18:34:10.370Z,15.97
2023-11-24T18:36:42.768Z,15.00
2023-11-24T18:39:14.255Z,10.90
2023-11-24T18:41:46.439Z,12.97
2023-11-24T18:44:19.534Z,15.40
2023-11-24T18:46:50.961Z,11.53
2023-11-24T18:49:20.626Z,14.17
2023-11-24T18:51:50.266Z,14.10
2023-11-24T18:54:21.759Z,27.33
2023-11-24T18:56:55.423Z,34.10
2023-11-24T18:59:28.515Z,26.13
2023-11-24T19:02:02.038Z,14.10
2023-11-24T19:04:34.288Z,13.17
2023-11-24T19:07:05.688Z,11.73
2023-11-24T19:09:37.327Z,12.03
2023-11-24T19:12:09.621Z,10.73
2023-11-24T19:14:42.780Z,12.97
2023-11-24T19:17:14.883Z,10.70
2023-11-24T19:19:50.512Z,11.60
2023-11-24T19:22:21.755Z,10.63
2023-11-24T19:24:53.853Z,11.67
2023-11-24T19:27:25.265Z,12.67
2023-11-24T19:29:58.030Z,10.17
2023-11-24T19:32:29.301Z,12.63
2023-11-24T19:35:00.388Z,11.70
2023-11-24T19:37:31.440Z,12.83
2023-11-24T19:40:03.020Z,16.70
2023-11-24T19:42:34.553Z,18.20
2023-11-24T19:45:09.046Z,11.57
2023-11-24T19:47:41.377Z,10.43
2023-11-24T19:50:13.691Z,16.93
2023-11-24T19:52:46.000Z,22.63
2023-11-24T19:55:18.448Z,16.43
2023-11-24T19:57:50.089Z,19.57
2023-11-24T20:00:24.131Z,16.33
2023-11-24T20:02:55.510Z,12.93
2023-11-24T20:05:29.104Z,13.77
2023-11-24T20:08:00.862Z,12.43
2023-11-24T20:10:33.136Z,13.77
2023-11-24T20:13:06.117Z,14.50
2023-11-24T20:15:39.904Z,13.40
2023-11-24T20:18:13.111Z,18.37
2023-11-24T20:20:46.814Z,14.50
2023-11-24T20:23:18.507Z,17.60
2023-11-24T20:25:50.563Z,16.10
2023-11-24T20:28:22.456Z,16.43
2023-11-24T20:30:55.576Z,15.70
2023-11-24T20:33:27.220Z,16.47
2023-11-24T20:35:59.241Z,12.23
2023-11-24T20:38:31.267Z,17.33
2023-11-24T20:41:03.008Z,20.47
2023-11-24T20:43:35.317Z,14.57
2023-11-24T20:46:08.762Z,19.87
2023-11-24T20:48:41.213Z,15.63
2023-11-24T20:51:13.715Z,16.33
2023-11-24T20:53:45.194Z,15.20
2023-11-24T20:56:16.189Z,12.70
2023-11-24T20:58:47.853Z,13.73
2023-11-24T21:01:18.934Z,11.77
2023-11-24T21:03:48.360Z,17.50
2023-11-24T21:06:17.873Z,14.87
2023-11-24T21:08:47.118Z,19.30
2023-11-24T21:11:16.846Z,13.27
2023-11-24T21:13:45.968Z,12.97
2023-11-24T21:16:15.381Z,10.43
2023-11-24T21:18:46.316Z,13.40
2023-11-24T21:21:16.203Z,14.10
2023-11-24T21:23:45.943Z,14.97
2023-11-24T21:26:19.713Z,14.20
2023-11-24T21:28:50.557Z,13.73
2023-11-24T21:31:21.773Z,12.73
2023-11-24T21:33:53.248Z,10.40
2023-11-24T21:36:22.587Z,11.27
2023-11-24T21:38:51.769Z,17.57
2023-11-24T21:41:21.896Z,13.27
2023-11-24T21:43:51.290Z,9.43
2023-11-24T21:46:21.345Z,10.17
2023-11-24T21:48:52.017Z,9.83
2023-11-24T21:51:21.371Z,9.23
2023-11-24T21:53:50.669Z,10.23
2023-11-24T21:56:26.928Z,10.50
2023-11-24T21:58:56.180Z,7.80
2023-11-24T22:01:27.482Z,8.67
2023-11-24T22:03:58.418Z,8.83
2023-11-24T22:06:33.068Z,7.43
2023-11-24T22:09:02.592Z,7.57
2023-11-24T22:11:33.357Z,5.80
2023-11-24T22:14:02.647Z,6.40
2023-11-24T22:16:31.969Z,10.07
2023-11-24T22:19:02.894Z,9.00
2023-11-24T22:21:32.256Z,21.03
2023-11-24T22:24:01.763Z,8.97
2023-11-24T22:26:31.290Z,7.73
2023-11-24T22:29:00.729Z,8.83
2023-11-24T22:31:30.239Z,7.30
2023-11-24T22:33:59.870Z,13.73
2023-11-24T22:36:30.546Z,14.97
2023-11-24T22:38:59.856Z,11.10
2023-11-24T22:41:30.252Z,12.50
2023-11-24T22:43:59.337Z,7.07
2023-11-24T22:46:30.125Z,6.73
2023-11-24T22:48:59.397Z,8.83
2023-11-24T22:51:29.354Z,7.13
2023-11-24T22:53:58.821Z,9.77
2023-11-24T22:56:29.627Z,13.80
2023-11-24T22:59:00.837Z,7.07
2023-11-24T23:01:30.822Z,7.53
2023-11-24T23:04:02.387Z,6.20
2023-11-24T23:06:33.348Z,8.23
2023-11-24T23:09:03.129Z,6.87
2023-11-24T23:11:34.827Z,8.90
2023-11-24T23:14:04.103Z,10.67
2023-11-24T23:16:36.745Z,7.80
2023-11-24T23:19:06.059Z,6.87
2023-11-24T23:21:37.964Z,7.73
2023-11-24T23:24:12.251Z,7.67
2023-11-24T23:26:42.242Z,7.80
2023-11-24T23:29:11.344Z,7.87
2023-11-24T23:31:40.951Z,9.33
2023-11-24T23:34:10.255Z,12.17
2023-11-24T23:36:41.320Z,9.13
2023-11-24T23:39:11.531Z,7.03
2023-11-24T23:41:40.800Z,8.27
2023-11-24T23:44:10.059Z,8.70
2023-11-24T23:46:39.428Z,11.67
2023-11-24T23:49:10.038Z,12.50
2023-11-24T23:51:40.811Z,9.80
2023-11-24T23:54:09.958Z,6.90
2023-11-24T23:56:39.618Z,9.60
2023-11-24T23:59:08.674Z,12.10
